Aérodrome :
LOGIN :

S'inscrire | Disclaimer

   EN    FR    IT 

 










Légende :    VFR   VFR Marginal   IFR   IFR Intensif   IFR Très Intensif
Visi : 
Plafond : 
>= 8 km
>= 3000ft
5 à 8 km
1000 à 3000 ft
1500m à 5 km
500 à 1000 ft
800 à 1500m
200 à 500 ft
< 800m
< 200 ft
Symboles :   Orages  Brouillard  Fortes neiges  Fortes précipitations  Vent > 20 kt
SIGMETs :   Divers  Orages  Givrage  Turbulence  Onde Orograph.  Cendres Volcan.






- Altitude de l'aérodrome : 83 ft
- Code IATA : LHR


EGLL - London Heathrow

DERNIER METAR :
  • 080620Z AUTO 16003KT 130V210 9999 NCD M04/M04 Q1037 TEMPO 4000 BR MIFG

METARs EXPIRÉS :
  • 080550Z AUTO 03001KT 9000 NCD M03/M04 Q1036 TEMPO 4000 BR MIFG
  • 080520Z AUTO 35001KT 9999 NCD M03/M04 Q1036 TEMPO 4000 BR MIFG
  • 080450Z AUTO 26001KT 8000 NCD M03/M04 Q1036 BECMG 4000 BR MIFG
  • 080420Z AUTO VRB01KT 9000 NCD M03/M04 Q1037 BECMG 4000 BR MIFG
  • 080350Z AUTO 00000KT 8000 NCD M02/M03 Q1037 BECMG 4000 BR MIFG
  • 080320Z AUTO 34002KT 9999 NCD M02/M03 Q1037 BECMG 4000 MIFG BR

TAF TAF EGLL
Valide du 08 à 06h jusqu'au 09 à 12h UTC


080500Z 0806/0912 VRB02KT 8000 NSC
BECMG 0806/0809 0300 FZFG VV///
BECMG 0809/0812 6000 NSW FEW001
BECMG 0812/0814 CAVOK
BECMG 0820/0823 8000
PROB30
TEMPO 0900/0904 4000 BR MIFG
TEMPO 0906/0911 -RADZ BKN009
BECMG 0910/0912 9999



MET'MAP, la Météo Aéronautique d'un coup d'oeil ! - Copyright ORBIFLY Décembre 2007 - Disclaimer

ORBIFLY MET'MAP TEAM :

Programmation & Développement : Alexandra Zaïnal
Sur une idée originale de : Baudouin d'Aumeries
Soutien technique & logistique : Manuel Goepfert
Assistance : Marc-Olivier Méhu




SOURCES & CREDITS :

   NOAA